sensor_id;sensor_type;location;lat;lon;timestamp;pressure;altitude;pressure_sealevel;temperature;humidity
54453;BME280;40363;52.270;10.546;2022-09-09T00:00:19;75730.94;;;-147.06;95.85
54453;BME280;40363;52.270;10.546;2022-09-09T00:02:54;75737.09;;;-147.06;96.26
54453;BME280;40363;52.270;10.546;2022-09-09T00:05:30;75737.09;;;-147.06;96.04
54453;BME280;40363;52.270;10.546;2022-09-09T00:08:02;75743.25;;;-147.06;95.87
54453;BME280;40363;52.270;10.546;2022-09-09T00:10:33;75741.22;;;-147.06;96.02
54453;BME280;40363;52.270;10.546;2022-09-09T00:13:09;75759.69;;;-147.06;97.11
54453;BME280;40363;52.270;10.546;2022-09-09T00:15:46;75759.69;;;-147.06;97.30
54453;BME280;40363;52.270;10.546;2022-09-09T00:18:24;75757.66;;;-147.06;97.05
54453;BME280;40363;52.270;10.546;2022-09-09T00:20:58;75753.53;;;-147.06;97.05
54453;BME280;40363;52.270;10.546;2022-09-09T00:23:33;75749.44;;;-147.06;96.59
54453;BME280;40363;52.270;10.546;2022-09-09T00:26:09;75745.31;;;-147.06;96.86
54453;BME280;40363;52.270;10.546;2022-09-09T00:31:12;75741.22;;;-147.06;97.08
54453;BME280;40363;52.270;10.546;2022-09-09T00:33:40;75757.66;;;-147.06;97.68
54453;BME280;40363;52.270;10.546;2022-09-09T00:36:12;75761.75;;;-147.06;98.00
54453;BME280;40363;52.270;10.546;2022-09-09T00:38:44;75767.91;;;-147.06;97.67
54453;BME280;40363;52.270;10.546;2022-09-09T00:41:17;75761.75;;;-147.06;98.10
54453;BME280;40363;52.270;10.546;2022-09-09T00:44:02;75745.31;;;-147.06;96.33
54453;BME280;40363;52.270;10.546;2022-09-09T00:46:41;75737.09;;;-147.06;95.22
54453;BME280;40363;52.270;10.546;2022-09-09T00:49:22;75722.72;;;-147.06;94.82
54453;BME280;40363;52.270;10.546;2022-09-09T00:51:58;75716.53;;;-147.06;93.70
54453;BME280;40363;52.270;10.546;2022-09-09T00:54:38;75708.31;;;-147.06;92.13
54453;BME280;40363;52.270;10.546;2022-09-09T00:57:25;75700.09;;;-147.06;90.79
54453;BME280;40363;52.270;10.546;2022-09-09T00:59:58;75687.78;;;-147.06;90.60
54453;BME280;40363;52.270;10.546;2022-09-09T01:02:35;75693.94;;;-147.06;91.47
54453;BME280;40363;52.270;10.546;2022-09-09T01:05:10;75696.00;;;-147.06;91.43
54453;BME280;40363;52.270;10.546;2022-09-09T01:07:40;75700.09;;;-147.06;91.43
54453;BME280;40363;52.270;10.546;2022-09-09T01:10:19;75704.22;;;-147.06;91.57
54453;BME280;40363;52.270;10.546;2022-09-09T01:12:51;75704.22;;;-147.06;90.79
54453;BME280;40363;52.270;10.546;2022-09-09T01:15:22;75704.22;;;-147.06;91.94
54453;BME280;40363;52.270;10.546;2022-09-09T01:17:55;75718.59;;;-147.06;93.02
54453;BME280;40363;52.270;10.546;2022-09-09T01:20:26;75724.75;;;-147.06;93.23
54453;BME280;40363;52.270;10.546;2022-09-09T01:26:23;75726.81;;;-147.06;94.82
54453;BME280;40363;52.270;10.546;2022-09-09T01:28:52;75745.31;;;-147.06;94.68
54453;BME280;40363;52.270;10.546;2022-09-09T01:31:22;75735.03;;;-147.06;94.71
54453;BME280;40363;52.270;10.546;2022-09-09T01:33:49;75741.22;;;-147.06;94.61
54453;BME280;40363;52.270;10.546;2022-09-09T01:36:21;75741.22;;;-147.06;95.04
54453;BME280;40363;52.270;10.546;2022-09-09T01:38:52;75755.59;;;-147.06;95.59
54453;BME280;40363;52.270;10.546;2022-09-09T01:41:21;75741.22;;;-147.06;95.12
54453;BME280;40363;52.270;10.546;2022-09-09T01:43:48;75749.44;;;-147.06;95.33
54453;BME280;40363;52.270;10.546;2022-09-09T01:46:17;75759.69;;;-147.06;95.54
54453;BME280;40363;52.270;10.546;2022-09-09T01:48:47;75759.69;;;-147.06;95.70
54453;BME280;40363;52.270;10.546;2022-09-09T01:51:14;75767.91;;;-147.06;96.35
54453;BME280;40363;52.270;10.546;2022-09-09T01:53:41;75757.66;;;-147.06;95.61
54453;BME280;40363;52.270;10.546;2022-09-09T01:56:19;75761.75;;;-147.06;95.76
54453;BME280;40363;52.270;10.546;2022-09-09T01:59:02;75774.09;;;-147.06;96.02
54453;BME280;40363;52.270;10.546;2022-09-09T02:01:39;75776.13;;;-147.06;96.29
54453;BME280;40363;52.270;10.546;2022-09-09T02:04:15;75778.19;;;-147.06;96.83
54453;BME280;40363;52.270;10.546;2022-09-09T02:06:45;75778.19;;;-147.06;96.59
54453;BME280;40363;52.270;10.546;2022-09-09T02:09:17;75782.31;;;-147.06;96.78
54453;BME280;40363;52.270;10.546;2022-09-09T02:11:47;75786.41;;;-147.06;96.38
54453;BME280;40363;52.270;10.546;2022-09-09T02:14:22;75784.38;;;-147.06;96.37
54453;BME280;40363;52.270;10.546;2022-09-09T02:16:53;75790.53;;;-147.06;96.04
54453;BME280;40363;52.270;10.546;2022-09-09T02:19:25;75790.53;;;-147.06;96.16
54453;BME280;40363;52.270;10.546;2022-09-09T02:21:54;75800.81;;;-147.06;95.68
54453;BME280;40363;52.270;10.546;2022-09-09T02:24:22;75794.63;;;-147.06;96.28
54453;BME280;40363;52.270;10.546;2022-09-09T02:26:51;75802.84;;;-147.06;96.29
54453;BME280;40363;52.270;10.546;2022-09-09T02:29:25;75811.06;;;-147.06;96.25
54453;BME280;40363;52.270;10.546;2022-09-09T02:31:53;75809.03;;;-147.06;96.32
54453;BME280;40363;52.270;10.546;2022-09-09T02:34:23;75815.19;;;-147.06;95.79
54453;BME280;40363;52.270;10.546;2022-09-09T02:36:50;75806.97;;;-147.06;96.31
54453;BME280;40363;52.270;10.546;2022-09-09T02:39:19;75815.19;;;-147.06;95.47
54453;BME280;40363;52.270;10.546;2022-09-09T02:41:46;75827.50;;;-147.06;95.72
54453;BME280;40363;52.270;10.546;2022-09-09T02:44:14;75819.28;;;-147.06;96.29
54453;BME280;40363;52.270;10.546;2022-09-09T02:47:13;75823.41;;;-147.06;95.87
54453;BME280;40363;52.270;10.546;2022-09-09T02:49:50;75813.13;;;-147.06;95.97
54453;BME280;40363;52.270;10.546;2022-09-09T02:52:27;75819.28;;;-147.06;96.08
54453;BME280;40363;52.270;10.546;2022-09-09T02:54:58;75813.13;;;-147.06;95.57
54453;BME280;40363;52.270;10.546;2022-09-09T02:57:30;75819.28;;;-147.06;95.25
54453;BME280;40363;52.270;10.546;2022-09-09T02:59:58;75823.41;;;-147.06;95.45
54453;BME280;40363;52.270;10.546;2022-09-09T03:02:27;75829.56;;;-147.06;95.74
54453;BME280;40363;52.270;10.546;2022-09-09T03:04:53;75831.63;;;-147.06;95.93
54453;BME280;40363;52.270;10.546;2022-09-09T03:07:20;75835.75;;;-147.06;96.87
54453;BME280;40363;52.270;10.546;2022-09-09T03:09:47;75833.69;;;-147.06;96.38
54453;BME280;40363;52.270;10.546;2022-09-09T03:12:14;75839.84;;;-147.06;97.22
54453;BME280;40363;52.270;10.546;2022-09-09T03:14:41;75831.63;;;-147.06;97.42
54453;BME280;40363;52.270;10.546;2022-09-09T03:17:09;75833.69;;;-147.06;96.77
54453;BME280;40363;52.270;10.546;2022-09-09T03:19:37;75841.91;;;-147.06;96.81
54453;BME280;40363;52.270;10.546;2022-09-09T03:22:04;75846.00;;;-147.06;97.05
54453;BME280;40363;52.270;10.546;2022-09-09T03:24:31;75843.97;;;-147.06;96.97
54453;BME280;40363;52.270;10.546;2022-09-09T03:26:57;75841.91;;;-147.06;96.92
54453;BME280;40363;52.270;10.546;2022-09-09T03:29:24;75839.84;;;-147.06;96.86
54453;BME280;40363;52.270;10.546;2022-09-09T03:31:50;75846.00;;;-147.06;96.75
54453;BME280;40363;52.270;10.546;2022-09-09T03:34:17;75848.06;;;-147.06;96.60
54453;BME280;40363;52.270;10.546;2022-09-09T03:36:45;75848.06;;;-147.06;97.18
54453;BME280;40363;52.270;10.546;2022-09-09T03:39:13;75858.34;;;-147.06;97.16
54453;BME280;40363;52.270;10.546;2022-09-09T03:41:40;75870.66;;;-147.06;97.42
54453;BME280;40363;52.270;10.546;2022-09-09T03:44:07;75852.19;;;-147.06;96.55
54453;BME280;40363;52.270;10.546;2022-09-09T03:46:33;75846.00;;;-147.06;96.75
54453;BME280;40363;52.270;10.546;2022-09-09T03:49:00;75841.91;;;-147.06;96.54
54453;BME280;40363;52.270;10.546;2022-09-09T03:51:27;75839.84;;;-147.06;96.87
54453;BME280;40363;52.270;10.546;2022-09-09T03:53:55;75829.56;;;-147.06;96.83
54453;BME280;40363;52.270;10.546;2022-09-09T03:56:23;75827.50;;;-147.06;96.90
54453;BME280;40363;52.270;10.546;2022-09-09T03:58:50;75848.06;;;-147.06;97.55
54453;BME280;40363;52.270;10.546;2022-09-09T04:01:16;75831.63;;;-147.06;97.43
54453;BME280;40363;52.270;10.546;2022-09-09T04:03:43;75829.56;;;-147.06;97.33
54453;BME280;40363;52.270;10.546;2022-09-09T04:06:12;75827.50;;;-147.06;97.30
54453;BME280;40363;52.270;10.546;2022-09-09T04:08:39;75831.63;;;-147.06;97.43
54453;BME280;40363;52.270;10.546;2022-09-09T04:11:08;75831.63;;;-147.06;97.06
54453;BME280;40363;52.270;10.546;2022-09-09T04:13:36;75823.41;;;-147.06;97.42
54453;BME280;40363;52.270;10.546;2022-09-09T04:16:04;75811.06;;;-147.06;97.24
54453;BME280;40363;52.270;10.546;2022-09-09T04:18:31;75804.91;;;-147.06;97.38
54453;BME280;40363;52.270;10.546;2022-09-09T04:20:58;75802.84;;;-147.06;97.54
54453;BME280;40363;52.270;10.546;2022-09-09T04:23:26;75809.03;;;-147.06;97.83
54453;BME280;40363;52.270;10.546;2022-09-09T04:25:54;75817.25;;;-147.06;98.12
54453;BME280;40363;52.270;10.546;2022-09-09T04:28:24;75798.75;;;-147.06;97.50
54453;BME280;40363;52.270;10.546;2022-09-09T04:30:51;75798.75;;;-147.06;97.33
54453;BME280;40363;52.270;10.546;2022-09-09T04:33:19;75802.84;;;-147.06;97.06
54453;BME280;40363;52.270;10.546;2022-09-09T04:35:47;75809.03;;;-147.06;97.22
54453;BME280;40363;52.270;10.546;2022-09-09T04:38:14;75815.19;;;-147.06;96.84
54453;BME280;40363;52.270;10.546;2022-09-09T04:40:42;75811.06;;;-147.06;97.53
54453;BME280;40363;52.270;10.546;2022-09-09T04:43:09;75804.91;;;-147.06;97.93
54453;BME280;40363;52.270;10.546;2022-09-09T04:45:37;75802.84;;;-147.06;97.85
54453;BME280;40363;52.270;10.546;2022-09-09T04:48:05;75798.75;;;-147.06;98.25
54453;BME280;40363;52.270;10.546;2022-09-09T04:50:32;75802.84;;;-147.06;97.88
54453;BME280;40363;52.270;10.546;2022-09-09T04:53:00;75804.91;;;-147.06;98.52
54453;BME280;40363;52.270;10.546;2022-09-09T04:55:27;75790.53;;;-147.06;98.30
54453;BME280;40363;52.270;10.546;2022-09-09T04:57:54;75786.41;;;-147.06;97.91
54453;BME280;40363;52.270;10.546;2022-09-09T05:00:20;75774.09;;;-147.06;96.91
54453;BME280;40363;52.270;10.546;2022-09-09T05:02:48;75761.75;;;-147.06;96.78
54453;BME280;40363;52.270;10.546;2022-09-09T05:05:15;75755.59;;;-147.06;95.71
54453;BME280;40363;52.270;10.546;2022-09-09T05:07:42;75745.31;;;-147.06;95.93
54453;BME280;40363;52.270;10.546;2022-09-09T05:10:11;75745.31;;;-147.06;96.21
54453;BME280;40363;52.270;10.546;2022-09-09T05:12:40;75753.53;;;-147.06;96.40
54453;BME280;40363;52.270;10.546;2022-09-09T05:15:07;75745.31;;;-147.06;95.95
54453;BME280;40363;52.270;10.546;2022-09-09T05:17:34;75737.09;;;-147.06;94.94
54453;BME280;40363;52.270;10.546;2022-09-09T05:20:03;75726.81;;;-147.06;94.89
54453;BME280;40363;52.270;10.546;2022-09-09T05:22:30;75708.31;;;-147.06;92.54
54453;BME280;40363;52.270;10.546;2022-09-09T05:24:56;75693.94;;;-147.06;93.10
54453;BME280;40363;52.270;10.546;2022-09-09T05:27:23;75693.94;;;-147.06;93.30
54453;BME280;40363;52.270;10.546;2022-09-09T05:29:52;75683.66;;;-147.06;93.50
54453;BME280;40363;52.270;10.546;2022-09-09T05:32:18;75679.56;;;-147.06;93.34
54453;BME280;40363;52.270;10.546;2022-09-09T05:34:45;75671.34;;;-147.06;92.44
54453;BME280;40363;52.270;10.546;2022-09-09T05:37:13;75663.13;;;-147.06;91.36
54453;BME280;40363;52.270;10.546;2022-09-09T05:39:40;75659.00;;;-147.06;91.90
54453;BME280;40363;52.270;10.546;2022-09-09T05:42:06;75671.34;;;-147.06;91.44
54453;BME280;40363;52.270;10.546;2022-09-09T05:44:33;75659.00;;;-147.06;90.84
54453;BME280;40363;52.270;10.546;2022-09-09T05:47:00;75640.50;;;-147.06;89.56
54453;BME280;40363;52.270;10.546;2022-09-09T05:49:27;75630.25;;;-147.06;89.35
54453;BME280;40363;52.270;10.546;2022-09-09T05:51:53;75613.81;;;-147.06;88.37
54453;BME280;40363;52.270;10.546;2022-09-09T05:54:21;75622.03;;;-147.06;89.53
54453;BME280;40363;52.270;10.546;2022-09-09T05:56:48;75630.25;;;-147.06;89.56
54453;BME280;40363;52.270;10.546;2022-09-09T05:59:17;75632.28;;;-147.06;89.31
54453;BME280;40363;52.270;10.546;2022-09-09T06:01:44;75642.56;;;-147.06;90.20
54453;BME280;40363;52.270;10.546;2022-09-09T06:04:11;75634.34;;;-147.06;92.28
54453;BME280;40363;52.270;10.546;2022-09-09T06:06:38;75628.19;;;-147.06;91.83
54453;BME280;40363;52.270;10.546;2022-09-09T06:09:06;75634.34;;;-147.06;91.71
54453;BME280;40363;52.270;10.546;2022-09-09T06:11:37;75628.19;;;-147.06;91.75
54453;BME280;40363;52.270;10.546;2022-09-09T06:14:04;75640.50;;;-147.06;91.95
54453;BME280;40363;52.270;10.546;2022-09-09T06:16:32;75640.50;;;-147.06;89.58
54453;BME280;40363;52.270;10.546;2022-09-09T06:19:03;75638.47;;;-147.06;89.41
54453;BME280;40363;52.270;10.546;2022-09-09T06:21:31;75646.69;;;-147.06;87.29
54453;BME280;40363;52.270;10.546;2022-09-09T06:23:59;75634.34;;;-147.06;88.25
54453;BME280;40363;52.270;10.546;2022-09-09T06:26:27;75624.06;;;-147.06;87.99
54453;BME280;40363;52.270;10.546;2022-09-09T06:28:56;75611.75;;;-147.06;87.23
54453;BME280;40363;52.270;10.546;2022-09-09T06:31:35;75601.47;;;-147.06;85.99
54453;BME280;40363;52.270;10.546;2022-09-09T06:34:04;75568.59;;;-147.06;86.76
54453;BME280;40363;52.270;10.546;2022-09-09T06:36:33;75537.78;;;-147.06;85.69
54453;BME280;40363;52.270;10.546;2022-09-09T06:39:00;75523.38;;;-147.06;85.05
54453;BME280;40363;52.270;10.546;2022-09-09T06:41:29;75502.84;;;-147.06;84.33
54453;BME280;40363;52.270;10.546;2022-09-09T06:43:58;75498.72;;;-147.06;83.01
54453;BME280;40363;52.270;10.546;2022-09-09T06:46:46;75498.72;;;-147.06;83.69
54453;BME280;40363;52.270;10.546;2022-09-09T06:49:27;75490.50;;;-147.06;83.84
54453;BME280;40363;52.270;10.546;2022-09-09T06:51:57;75453.53;;;-147.06;81.46
54453;BME280;40363;52.270;10.546;2022-09-09T06:54:24;75414.47;;;-147.06;81.67
54453;BME280;40363;52.270;10.546;2022-09-09T06:56:52;75383.66;;;-147.06;79.09
54453;BME280;40363;52.270;10.546;2022-09-09T06:59:23;75379.53;;;-147.06;78.10
54453;BME280;40363;52.270;10.546;2022-09-09T07:01:49;75260.38;;;-147.06;73.88
54453;BME280;40363;52.270;10.546;2022-09-09T07:04:17;75098.03;;;-147.06;68.27
54453;BME280;40363;52.270;10.546;2022-09-09T07:06:46;74976.81;;;-147.06;63.34
54453;BME280;40363;52.270;10.546;2022-09-09T07:09:15;74841.22;;;-147.06;60.05
54453;BME280;40363;52.270;10.546;2022-09-09T07:11:43;74833.00;;;-147.06;59.43
54453;BME280;40363;52.270;10.546;2022-09-09T07:14:13;74946.00;;;-147.06;60.75
54453;BME280;40363;52.270;10.546;2022-09-09T07:16:41;74943.94;;;-147.06;61.49
54453;BME280;40363;52.270;10.546;2022-09-09T07:19:08;74865.88;;;-147.06;59.66
54453;BME280;40363;52.270;10.546;2022-09-09T07:21:38;74765.19;;;-147.06;56.45
54453;BME280;40363;52.270;10.546;2022-09-09T07:24:05;74713.84;;;-147.06;55.31
54453;BME280;40363;52.270;10.546;2022-09-09T07:26:35;74668.66;;;-147.06;54.67
54453;BME280;40363;52.270;10.546;2022-09-09T07:29:05;74637.81;;;-147.06;53.77
54453;BME280;40363;52.270;10.546;2022-09-09T07:31:41;74565.91;;;-147.06;51.66
54453;BME280;40363;52.270;10.546;2022-09-09T07:34:11;74541.28;;;-147.06;50.85
54453;BME280;40363;52.270;10.546;2022-09-09T07:36:39;74567.97;;;-147.06;50.87
54453;BME280;40363;52.270;10.546;2022-09-09T07:39:09;74533.06;;;-147.06;49.40
54453;BME280;40363;52.270;10.546;2022-09-09T07:41:47;74578.25;;;-147.06;50.23
54453;BME280;40363;52.270;10.546;2022-09-09T07:44:18;74791.91;;;-147.06;54.44
54453;BME280;40363;52.270;10.546;2022-09-09T07:46:48;74796.03;;;-147.06;55.12
54453;BME280;40363;52.270;10.546;2022-09-09T07:49:15;74812.47;;;-147.06;55.59
54453;BME280;40363;52.270;10.546;2022-09-09T07:51:45;74857.66;;;-147.06;56.69
54453;BME280;40363;52.270;10.546;2022-09-09T07:54:15;74857.66;;;-147.06;56.91
54453;BME280;40363;52.270;10.546;2022-09-09T07:56:45;74906.97;;;-147.06;58.17
54453;BME280;40363;52.270;10.546;2022-09-09T07:59:12;74830.94;;;-147.06;56.99
54453;BME280;40363;52.270;10.546;2022-09-09T08:01:40;74730.28;;;-147.06;54.16
54453;BME280;40363;52.270;10.546;2022-09-09T08:04:11;74676.88;;;-147.06;52.73
54453;BME280;40363;52.270;10.546;2022-09-09T08:06:43;74615.22;;;-147.06;51.41
54453;BME280;40363;52.270;10.546;2022-09-09T08:09:10;74553.59;;;-147.06;49.60
54453;BME280;40363;52.270;10.546;2022-09-09T08:11:38;74576.19;;;-147.06;49.75
54453;BME280;40363;52.270;10.546;2022-09-09T08:14:05;74463.22;;;-147.06;48.08
54453;BME280;40363;52.270;10.546;2022-09-09T08:16:34;74455.00;;;-147.06;47.63
54453;BME280;40363;52.270;10.546;2022-09-09T08:19:02;74401.56;;;-147.06;46.43
54453;BME280;40363;52.270;10.546;2022-09-09T08:21:31;74387.19;;;-147.06;46.26
54453;BME280;40363;52.270;10.546;2022-09-09T08:23:59;74448.81;;;-147.06;46.68
54453;BME280;40363;52.270;10.546;2022-09-09T08:26:30;74658.38;;;-147.06;48.53
54453;BME280;40363;52.270;10.546;2022-09-09T08:28:58;74787.81;;;-147.06;51.81
54453;BME280;40363;52.270;10.546;2022-09-09T08:31:26;74878.19;;;-147.06;53.75
54453;BME280;40363;52.270;10.546;2022-09-09T08:33:54;74943.94;;;-147.06;55.54
54453;BME280;40363;52.270;10.546;2022-09-09T08:36:23;74995.31;;;-147.06;56.58
54453;BME280;40363;52.270;10.546;2022-09-09T08:38:54;74993.25;;;-147.06;57.25
54453;BME280;40363;52.270;10.546;2022-09-09T08:45:14;74976.81;;;-147.06;57.08
54453;BME280;40363;52.270;10.546;2022-09-09T08:47:51;74845.34;;;-147.06;53.69
54453;BME280;40363;52.270;10.546;2022-09-09T08:50:23;74882.31;;;-147.06;54.31
54453;BME280;40363;52.270;10.546;2022-09-09T08:52:57;74937.78;;;-147.06;56.03
54453;BME280;40363;52.270;10.546;2022-09-09T08:55:29;74968.59;;;-147.06;56.60
54453;BME280;40363;52.270;10.546;2022-09-09T08:58:09;74931.63;;;-147.06;55.75
54453;BME280;40363;52.270;10.546;2022-09-09T09:00:43;74878.19;;;-147.06;54.39
54453;BME280;40363;52.270;10.546;2022-09-09T09:03:16;74976.81;;;-147.06;55.04
54453;BME280;40363;52.270;10.546;2022-09-09T09:05:56;75022.03;;;-147.06;56.88
54453;BME280;40363;52.270;10.546;2022-09-09T09:08:29;75044.63;;;-147.06;57.25
54453;BME280;40363;52.270;10.546;2022-09-09T09:11:00;75059.00;;;-147.06;58.16
54453;BME280;40363;52.270;10.546;2022-09-09T09:13:32;75050.78;;;-147.06;57.60
54453;BME280;40363;52.270;10.546;2022-09-09T09:16:06;75028.19;;;-147.06;56.74
54453;BME280;40363;52.270;10.546;2022-09-09T09:18:36;74956.28;;;-147.06;56.14
54453;BME280;40363;52.270;10.546;2022-09-09T09:21:07;74775.47;;;-147.06;53.13
54453;BME280;40363;52.270;10.546;2022-09-09T09:23:43;74701.50;;;-147.06;51.07
54453;BME280;40363;52.270;10.546;2022-09-09T09:26:12;74652.22;;;-147.06;50.67
54453;BME280;40363;52.270;10.546;2022-09-09T09:28:39;74576.19;;;-147.06;48.45
54453;BME280;40363;52.270;10.546;2022-09-09T09:31:09;74506.34;;;-147.06;47.43
54453;BME280;40363;52.270;10.546;2022-09-09T09:33:47;74701.50;;;-147.06;49.23
54453;BME280;40363;52.270;10.546;2022-09-09T09:36:15;74598.78;;;-147.06;48.80
54453;BME280;40363;52.270;10.546;2022-09-09T09:38:54;74551.53;;;-147.06;47.50
54453;BME280;40363;52.270;10.546;2022-09-09T09:41:34;74528.94;;;-147.06;46.54
54453;BME280;40363;52.270;10.546;2022-09-09T09:44:02;74590.56;;;-147.06;47.31
54453;BME280;40363;52.270;10.546;2022-09-09T09:46:30;74615.22;;;-147.06;48.44
54453;BME280;40363;52.270;10.546;2022-09-09T09:48:59;74670.69;;;-147.06;49.03
54453;BME280;40363;52.270;10.546;2022-09-09T09:51:26;74777.53;;;-147.06;51.07
54453;BME280;40363;52.270;10.546;2022-09-09T09:54:08;74767.25;;;-147.06;50.52
54453;BME280;40363;52.270;10.546;2022-09-09T09:56:40;74775.47;;;-147.06;50.97
54453;BME280;40363;52.270;10.546;2022-09-09T09:59:20;74861.75;;;-147.06;51.69
54453;BME280;40363;52.270;10.546;2022-09-09T10:01:50;74927.50;;;-147.06;53.22
54453;BME280;40363;52.270;10.546;2022-09-09T10:04:22;74929.56;;;-147.06;54.32
54453;BME280;40363;52.270;10.546;2022-09-09T10:06:54;74954.22;;;-147.06;54.57
54453;BME280;40363;52.270;10.546;2022-09-09T10:09:29;74931.63;;;-147.06;54.84
54453;BME280;40363;52.270;10.546;2022-09-09T10:12:05;74892.59;;;-147.06;54.49
54453;BME280;40363;52.270;10.546;2022-09-09T10:14:45;74941.91;;;-147.06;53.90
54453;BME280;40363;52.270;10.546;2022-09-09T10:17:20;74921.34;;;-147.06;56.33
54453;BME280;40363;52.270;10.546;2022-09-09T10:20:04;74964.50;;;-147.06;55.53
54453;BME280;40363;52.270;10.546;2022-09-09T10:22:39;74968.59;;;-147.06;56.19
54453;BME280;40363;52.270;10.546;2022-09-09T10:25:31;74964.50;;;-147.06;55.83
54453;BME280;40363;52.270;10.546;2022-09-09T10:28:29;74929.56;;;-147.06;55.86
54453;BME280;40363;52.270;10.546;2022-09-09T10:31:11;74939.84;;;-147.06;56.40
54453;BME280;40363;52.270;10.546;2022-09-09T10:33:46;74919.28;;;-147.06;55.54
54453;BME280;40363;52.270;10.546;2022-09-09T10:36:19;74828.91;;;-147.06;53.85
54453;BME280;40363;52.270;10.546;2022-09-09T10:38:48;74683.03;;;-147.06;50.01
54453;BME280;40363;52.270;10.546;2022-09-09T10:41:19;74672.75;;;-147.06;49.26
54453;BME280;40363;52.270;10.546;2022-09-09T10:46:55;74798.06;;;-147.06;51.14
54453;BME280;40363;52.270;10.546;2022-09-09T10:49:42;74841.22;;;-147.06;52.24
54453;BME280;40363;52.270;10.546;2022-09-09T10:52:15;74847.38;;;-147.06;52.18
54453;BME280;40363;52.270;10.546;2022-09-09T10:54:55;74652.22;;;-147.06;49.43
54453;BME280;40363;52.270;10.546;2022-09-09T10:57:28;74715.91;;;-147.06;49.77
54453;BME280;40363;52.270;10.546;2022-09-09T11:00:03;74777.53;;;-147.06;51.31
54453;BME280;40363;52.270;10.546;2022-09-09T11:02:32;74822.72;;;-147.06;51.63
54453;BME280;40363;52.270;10.546;2022-09-09T11:05:02;74841.22;;;-147.06;49.94
54453;BME280;40363;52.270;10.546;2022-09-09T11:07:35;74874.09;;;-147.06;51.09
54453;BME280;40363;52.270;10.546;2022-09-09T11:10:11;74890.53;;;-147.06;52.08
54453;BME280;40363;52.270;10.546;2022-09-09T11:12:43;74890.53;;;-147.06;51.92
54453;BME280;40363;52.270;10.546;2022-09-09T11:15:18;74882.31;;;-147.06;51.74
54453;BME280;40363;52.270;10.546;2022-09-09T11:17:50;74874.09;;;-147.06;51.99
54453;BME280;40363;52.270;10.546;2022-09-09T11:20:17;74882.31;;;-147.06;51.41
54453;BME280;40363;52.270;10.546;2022-09-09T11:22:48;74853.53;;;-147.06;50.82
54453;BME280;40363;52.270;10.546;2022-09-09T11:25:22;74857.66;;;-147.06;51.69
54453;BME280;40363;52.270;10.546;2022-09-09T11:27:59;74851.50;;;-147.06;51.36
54453;BME280;40363;52.270;10.546;2022-09-09T11:30:36;74841.22;;;-147.06;51.48
54453;BME280;40363;52.270;10.546;2022-09-09T11:36:24;74857.66;;;-147.06;52.71
54453;BME280;40363;52.270;10.546;2022-09-09T11:39:00;74874.09;;;-147.06;53.03
54453;BME280;40363;52.270;10.546;2022-09-09T11:41:34;74867.94;;;-147.06;53.65
54453;BME280;40363;52.270;10.546;2022-09-09T11:44:10;74882.31;;;-147.06;54.26
54453;BME280;40363;52.270;10.546;2022-09-09T11:46:40;74882.31;;;-147.06;54.30
54453;BME280;40363;52.270;10.546;2022-09-09T11:49:26;74894.63;;;-147.06;53.65
54453;BME280;40363;52.270;10.546;2022-09-09T11:51:54;74904.91;;;-147.06;53.20
54453;BME280;40363;52.270;10.546;2022-09-09T11:54:29;74931.63;;;-147.06;52.73
54453;BME280;40363;52.270;10.546;2022-09-09T11:56:56;74906.97;;;-147.06;52.50
54453;BME280;40363;52.270;10.546;2022-09-09T11:59:24;74911.06;;;-147.06;52.08
54453;BME280;40363;52.270;10.546;2022-09-09T12:01:56;74927.50;;;-147.06;51.55
54453;BME280;40363;52.270;10.546;2022-09-09T12:04:30;74909.03;;;-147.06;51.40
54453;BME280;40363;52.270;10.546;2022-09-09T12:07:00;74874.09;;;-147.06;50.72
54453;BME280;40363;52.270;10.546;2022-09-09T12:09:44;74863.81;;;-147.06;50.08
54453;BME280;40363;52.270;10.546;2022-09-09T12:12:28;74839.16;;;-147.06;49.95
54453;BME280;40363;52.270;10.546;2022-09-09T12:15:20;74789.84;;;-147.06;49.59
54453;BME280;40363;52.270;10.546;2022-09-09T12:17:50;74767.25;;;-147.06;49.27
54453;BME280;40363;52.270;10.546;2022-09-09T12:20:19;74757.00;;;-147.06;49.39
54453;BME280;40363;52.270;10.546;2022-09-09T12:22:54;74767.25;;;-147.06;49.61
54453;BME280;40363;52.270;10.546;2022-09-09T12:25:30;74763.16;;;-147.06;49.71
54453;BME280;40363;52.270;10.546;2022-09-09T12:28:05;74738.50;;;-147.06;49.55
54453;BME280;40363;52.270;10.546;2022-09-09T12:30:39;74746.72;;;-147.06;48.54
54453;BME280;40363;52.270;10.546;2022-09-09T12:33:17;74738.50;;;-147.06;48.56
54453;BME280;40363;52.270;10.546;2022-09-09T12:35:47;74726.16;;;-147.06;48.58
54453;BME280;40363;52.270;10.546;2022-09-09T12:38:21;74732.34;;;-147.06;47.79
54453;BME280;40363;52.270;10.546;2022-09-09T12:40:55;74717.94;;;-147.06;46.73
54453;BME280;40363;52.270;10.546;2022-09-09T12:43:24;74709.72;;;-147.06;47.02
54453;BME280;40363;52.270;10.546;2022-09-09T12:45:53;74759.03;;;-147.06;47.61
54453;BME280;40363;52.270;10.546;2022-09-09T12:48:29;74740.56;;;-147.06;46.41
54453;BME280;40363;52.270;10.546;2022-09-09T12:50:58;74726.16;;;-147.06;47.29
54453;BME280;40363;52.270;10.546;2022-09-09T12:53:27;74717.94;;;-147.06;46.75
54453;BME280;40363;52.270;10.546;2022-09-09T12:55:57;74678.91;;;-147.06;45.32
54453;BME280;40363;52.270;10.546;2022-09-09T12:58:25;74668.66;;;-147.06;44.67
54453;BME280;40363;52.270;10.546;2022-09-09T13:00:55;74648.09;;;-147.06;44.83
54453;BME280;40363;52.270;10.546;2022-09-09T13:03:23;74639.88;;;-147.06;47.52
54453;BME280;40363;52.270;10.546;2022-09-09T13:05:52;74633.72;;;-147.06;48.34